HOT - SCOPE : Cruise & Drifter Tracks
in the School of Ocean and Earth Science and Technology at the University of Hawai'i at Manoa


WaveGlider SV3-162 (mola) : IMEI 44310
GMT GMT Latitude Longitude DOG Heading
date time deg N deg W m deg
6-15-2021 2:10:00 21o 18.990' ( 21.3165) 157o 52.559' (-157.8760) 8 229
6-15-2021 2:05:00 21o 18.990' ( 21.3165) 157o 52.558' (-157.8760) 7 230
6-15-2021 2:00:00 21o 18.991' ( 21.3165) 157o 52.557' (-157.8759) 10 230
6-15-2021 1:35:00 21o 18.989' ( 21.3165) 157o 52.556' (-157.8759) 11 230
6-15-2021 1:30:00 21o 18.989' ( 21.3165) 157o 52.554' (-157.8759) 15 229
6-15-2021 1:10:00 21o 18.990' ( 21.3165) 157o 52.558' (-157.8760) 23 228
6-15-2021 1:05:00 21o 18.989' ( 21.3165) 157o 52.558' (-157.8760) 24 226
6-15-2021 1:00:00 21o 18.991' ( 21.3165) 157o 52.559' (-157.8760) 20 225
6-15-2021 0:45:00 21o 18.990' ( 21.3165) 157o 52.558' (-157.8760) 14 226
6-15-2021 0:40:00 21o 18.991' ( 21.3165) 157o 52.558' (-157.8760) 15 224
6-15-2021 0:30:00 21o 18.990' ( 21.3165) 157o 52.557' (-157.8759) 16 223
6-15-2021 0:25:00 21o 18.989' ( 21.3165) 157o 52.558' (-157.8760) 26 223
6-15-2021 0:20:00 21o 18.997' ( 21.3166) 157o 52.564' (-157.8761) 36 224
6-14-2021 23:40:00 21o 18.988' ( 21.3165) 157o 52.557' (-157.8759) 10 221
6-14-2021 23:25:00 21o 18.989' ( 21.3165) 157o 52.557' (-157.8759) 11 220
6-14-2021 23:20:00 21o 18.989' ( 21.3165) 157o 52.558' (-157.8760) 8 221
6-14-2021 23:15:00 21o 18.990' ( 21.3165) 157o 52.558' (-157.8760) 12 221
6-14-2021 23:10:00 21o 18.989' ( 21.3165) 157o 52.556' (-157.8759) 14 222
6-14-2021 23:05:00 21o 18.989' ( 21.3165) 157o 52.558' (-157.8760) 16 221
6-14-2021 23:00:00 21o 18.989' ( 21.3165) 157o 52.558' (-157.8760) 11 221
6-14-2021 22:55:00 21o 18.989' ( 21.3165) 157o 52.558' (-157.8760) 22 221
6-14-2021 22:45:00 21o 18.989' ( 21.3165) 157o 52.558' (-157.8760) 23 220
6-14-2021 22:40:00 21o 18.989' ( 21.3165) 157o 52.561' (-157.8760) 31 222
6-14-2021 22:25:00 21o 18.991' ( 21.3165) 157o 52.562' (-157.8760) 30 218
6-14-2021 22:20:00 21o 18.991' ( 21.3165) 157o 52.562' (-157.8760) 40 218
6-14-2021 22:15:00 21o 18.991' ( 21.3165) 157o 52.560' (-157.8760) 43 218
6-14-2021 22:10:00 21o 18.989' ( 21.3165) 157o 52.563' (-157.8760) 40 220
6-14-2021 22:05:00 21o 18.991' ( 21.3165) 157o 52.562' (-157.8760) 43 219
6-14-2021 22:00:00 21o 18.988' ( 21.3165) 157o 52.558' (-157.8760) 27 219
6-14-2021 21:55:00 21o 18.991' ( 21.3165) 157o 52.559' (-157.8760) 32 218
6-14-2021 21:50:00 21o 18.990' ( 21.3165) 157o 52.558' (-157.8760) 22 218
6-14-2021 21:45:00 21o 18.989' ( 21.3165) 157o 52.558' (-157.8760) 34 220
6-14-2021 21:40:00 21o 18.988' ( 21.3165) 157o 52.556' (-157.8759) 28 218
6-14-2021 21:35:00 21o 18.986' ( 21.3164) 157o 52.556' (-157.8759) 39 218
6-14-2021 21:30:00 21o 18.994' ( 21.3166) 157o 52.559' (-157.8760) 50 218
6-14-2021 21:25:00 21o 18.988' ( 21.3165) 157o 52.555' (-157.8759) 39 217
6-14-2021 21:15:00 21o 18.993' ( 21.3165) 157o 52.559' (-157.8760) 15 218
6-14-2021 21:10:00 21o 18.991' ( 21.3165) 157o 52.559' (-157.8760) 22 216
6-14-2021 21:00:44 21o 18.992' ( 21.3165) 157o 52.560' (-157.8760) 7 216
6-14-2021 21:00:04 21o 18.992' ( 21.3165) 157o 52.561' (-157.8760) 33 215
6-14-2021 20:49:03 21o 18.992' ( 21.3165) 157o 52.558' (-157.8760) 0 999

WaveGlider SV3-162 (mola) : IMEI 44310
GMT GMT Air Air Wind Direction Wind Speed
date time Pressure Temp. Avg StdDev Avg StdDev Max
millibars deg C deg deg knots knots knots
6-15-2021 1:50 1017.6 29.9 32.4 56.1 3.0 2.1 7.0
6-15-2021 1:40 1017.8 30.2 39.8 59.3 2.7 1.9 6.8
6-15-2021 1:10 1018.0 30.3 30.2 57.4 2.8 2.0 8.0
6-15-2021 1:00 1017.9 30.2 39.9 57.5 2.8 2.0 6.2
6-15-2021 0:40 1017.9 30.4 36.1 40.1 3.6 3.4 9.7
6-15-2021 0:10 1018.4 30.7 38.7 51.1 2.5 1.7 6.5
6-15-2021 0:00 1018.5 30.0 35.8 53.8 2.9 2.1 7.2
6-14-2021 23:50 1018.5 29.7 37.7 57.8 3.2 3.0 8.7
6-14-2021 23:40 1018.6 29.6 48.2 61.5 2.9 2.9 8.0
6-14-2021 23:20 1018.7 29.6 37.1 59.7 2.5 1.7 5.2
6-14-2021 23:10 1018.6 29.2 41.6 49.8 3.5 5.3 9.7
6-14-2021 22:40 1018.8 29.4 41.3 49.1 2.7 1.9 6.3
6-14-2021 22:20 1018.8 29.1 36.3 48.1 2.8 2.1 6.1
6-14-2021 22:10 1019.1 28.9 31.9 60.1 2.3 1.5 6.1
6-14-2021 21:50 1019.3 28.3 38.3 65.1 2.6 2.7 8.0
6-14-2021 21:40 1019.4 27.9 37.8 49.6 2.9 2.3 7.2
6-14-2021 21:30 1019.4 27.4 22.5 38.9 3.2 2.3 7.0
6-14-2021 21:20 1019.4 27.0 26.9 50.5 2.7 2.7 9.8
6-14-2021 21:10 1019.6 26.8 25.3 58.2 3.0 3.0 11.3
6-14-2021 21:00 1019.8 26.3 21.3 50.1 3.0 3.2 8.2

WaveGlider SV3-162 (mola) : IMEI 44310
GMT GMT Chlorophyll Blue Backscatter Red Backscatter
date time mg/l 470nM 700nM
6-15-2021 1:56:34 49.00 67.00 54.00
6-15-2021 1:36:33 49.00 67.00 55.00
6-15-2021 1:26:32 49.00 67.00 55.00
6-15-2021 1:16:31 49.00 66.00 54.00
6-15-2021 1:06:31 49.00 67.00 54.00